createdAt,value
2023-04-15T00:02:16.712Z,8.20
2023-04-15T00:04:45.018Z,8.20
2023-04-15T00:07:13.243Z,8.20
2023-04-15T00:09:42.203Z,8.10
2023-04-15T00:12:10.444Z,8.20
2023-04-15T00:14:38.695Z,8.20
2023-04-15T00:17:08.232Z,8.10
2023-04-15T00:19:36.863Z,8.10
2023-04-15T00:22:04.952Z,8.10
2023-04-15T00:24:33.013Z,8.10
2023-04-15T00:27:01.063Z,8.10
2023-04-15T00:29:29.513Z,8.10
2023-04-15T00:31:58.032Z,8.10
2023-04-15T00:34:28.906Z,8.10
2023-04-15T00:36:56.939Z,8.10
2023-04-15T00:39:25.012Z,8.10
2023-04-15T00:41:53.535Z,8.10
2023-04-15T00:44:21.542Z,8.10
2023-04-15T00:46:51.835Z,8.10
2023-04-15T00:49:20.082Z,8.10
2023-04-15T00:51:49.487Z,8.10
2023-04-15T00:54:17.975Z,8.10
2023-04-15T00:56:46.235Z,8.10
2023-04-15T00:59:16.724Z,8.10
2023-04-15T01:01:46.332Z,8.00
2023-04-15T01:04:15.168Z,8.00
2023-04-15T01:06:43.347Z,8.00
2023-04-15T01:09:13.268Z,8.00
2023-04-15T01:11:41.399Z,8.00
2023-04-15T01:14:11.183Z,8.00
2023-04-15T01:16:41.068Z,8.10
2023-04-15T01:19:10.119Z,8.00
2023-04-15T01:21:39.679Z,8.00
2023-04-15T01:24:11.660Z,8.00
2023-04-15T01:26:44.649Z,8.00
2023-04-15T01:29:13.233Z,8.00
2023-04-15T01:31:41.375Z,8.00
2023-04-15T01:34:09.440Z,8.00
2023-04-15T01:36:37.605Z,7.90
2023-04-15T01:39:06.626Z,7.90
2023-04-15T01:41:34.991Z,7.90
2023-04-15T01:44:04.439Z,7.90
2023-04-15T01:46:32.535Z,7.90
2023-04-15T01:49:02.042Z,7.90
2023-04-15T01:51:30.337Z,7.90
2023-04-15T01:53:58.409Z,7.90
2023-04-15T01:56:26.685Z,7.90
2023-04-15T01:58:54.901Z,7.90
2023-04-15T02:01:24.909Z,7.90
2023-04-15T02:03:54.829Z,7.90
2023-04-15T02:06:23.148Z,7.80
2023-04-15T02:08:51.188Z,7.80
2023-04-15T02:11:19.743Z,7.80
2023-04-15T02:13:47.844Z,7.80
2023-04-15T02:16:19.673Z,7.80
2023-04-15T02:18:49.165Z,7.80
2023-04-15T02:21:18.904Z,7.80
2023-04-15T02:23:48.323Z,7.80
2023-04-15T02:26:16.919Z,7.80
2023-04-15T02:28:44.966Z,7.80
2023-04-15T02:31:16.122Z,7.80
2023-04-15T02:33:44.269Z,7.80
2023-04-15T02:36:13.676Z,7.80
2023-04-15T02:38:43.081Z,7.80
2023-04-15T02:41:11.251Z,7.80
2023-04-15T02:43:40.002Z,7.80
2023-04-15T02:46:12.857Z,7.80
2023-04-15T02:48:41.109Z,7.80
2023-04-15T02:51:16.738Z,7.80
2023-04-15T02:53:44.852Z,7.80
2023-04-15T02:56:12.979Z,7.80
2023-04-15T02:58:41.867Z,7.80
2023-04-15T03:01:09.974Z,7.80
2023-04-15T03:03:38.692Z,7.80
2023-04-15T03:06:06.998Z,7.80
2023-04-15T03:08:37.018Z,7.80
2023-04-15T03:11:06.227Z,7.80
2023-04-15T03:13:35.082Z,7.80
2023-04-15T03:16:11.660Z,7.80
2023-04-15T03:18:40.033Z,7.80
2023-04-15T03:21:08.663Z,7.80
2023-04-15T03:23:40.520Z,7.80
2023-04-15T03:26:08.755Z,7.80
2023-04-15T03:28:37.949Z,7.80
2023-04-15T03:31:06.209Z,7.80
2023-04-15T03:33:34.364Z,7.80
2023-04-15T03:36:02.395Z,7.80
2023-04-15T03:38:30.446Z,7.80
2023-04-15T03:40:59.991Z,7.80
2023-04-15T03:43:28.235Z,7.80
2023-04-15T03:45:56.384Z,7.80
2023-04-15T03:48:24.485Z,7.80
2023-04-15T03:50:52.650Z,7.80
2023-04-15T03:53:22.081Z,7.80
2023-04-15T03:55:50.239Z,7.80
2023-04-15T03:58:19.649Z,7.80
2023-04-15T04:00:47.696Z,7.80
2023-04-15T04:03:15.997Z,7.80
2023-04-15T04:05:44.572Z,7.80
2023-04-15T04:08:13.918Z,7.80
2023-04-15T04:10:42.040Z,7.80
2023-04-15T04:13:10.166Z,7.80
2023-04-15T04:15:39.633Z,7.80
2023-04-15T04:18:07.777Z,7.80
2023-04-15T04:20:35.853Z,7.80
2023-04-15T04:23:03.966Z,7.80
2023-04-15T04:25:32.192Z,7.80
2023-04-15T04:28:00.269Z,7.80
2023-04-15T04:30:28.362Z,7.80
2023-04-15T04:32:57.838Z,7.80
2023-04-15T04:35:25.931Z,7.80
2023-04-15T04:37:53.914Z,7.80
2023-04-15T04:40:21.974Z,7.80
2023-04-15T04:42:50.069Z,7.80
2023-04-15T04:45:18.132Z,7.80
2023-04-15T04:47:46.586Z,7.80
2023-04-15T04:50:16.598Z,7.80
2023-04-15T04:52:44.672Z,7.80
2023-04-15T04:55:13.229Z,7.80
2023-04-15T04:57:41.381Z,7.80
2023-04-15T05:00:10.467Z,7.80
2023-04-15T05:02:38.835Z,7.80
2023-04-15T05:05:10.955Z,7.80
2023-04-15T05:07:40.628Z,7.80
2023-04-15T05:10:09.956Z,7.90
2023-04-15T05:12:38.480Z,7.90
2023-04-15T05:15:10.438Z,7.90
2023-04-15T05:17:38.639Z,7.90
2023-04-15T05:20:07.886Z,7.90
2023-04-15T05:22:36.150Z,7.90
2023-04-15T05:25:06.400Z,7.90
2023-04-15T05:27:34.698Z,7.90
2023-04-15T05:30:02.755Z,7.90
2023-04-15T05:32:31.203Z,7.90
2023-04-15T05:34:59.337Z,8.00
2023-04-15T05:37:27.370Z,7.90
2023-04-15T05:39:55.409Z,7.90
2023-04-15T05:42:25.009Z,8.00
2023-04-15T05:44:53.091Z,8.00
2023-04-15T05:47:21.260Z,8.00
2023-04-15T05:49:49.268Z,8.00
2023-04-15T05:52:17.483Z,8.00
2023-04-15T05:54:45.669Z,8.00
2023-04-15T05:57:13.730Z,8.00
2023-04-15T05:59:43.234Z,8.00
2023-04-15T06:02:11.766Z,8.00
2023-04-15T06:04:40.513Z,8.00
2023-04-15T06:07:08.699Z,8.00
2023-04-15T06:09:36.815Z,8.00
2023-04-15T06:12:06.581Z,8.00
2023-04-15T06:14:34.641Z,8.00
2023-04-15T06:17:04.161Z,8.00
2023-04-15T06:19:32.297Z,8.10
2023-04-15T06:22:00.730Z,8.10
2023-04-15T06:24:28.809Z,8.10
2023-04-15T06:26:57.629Z,8.10
2023-04-15T06:29:25.966Z,8.10
2023-04-15T06:31:54.130Z,8.10
2023-04-15T06:34:23.689Z,8.10
2023-04-15T06:36:51.748Z,8.20
2023-04-15T06:39:19.781Z,8.20
2023-04-15T06:41:48.004Z,8.20
2023-04-15T06:44:16.271Z,8.20
2023-04-15T06:46:44.318Z,8.20
2023-04-15T06:49:12.767Z,8.20
2023-04-15T06:51:43.632Z,8.20
2023-04-15T06:54:11.648Z,8.20
2023-04-15T06:56:39.746Z,8.30
2023-04-15T06:59:08.555Z,8.30
2023-04-15T07:01:36.765Z,8.30
2023-04-15T07:04:05.367Z,8.30
2023-04-15T07:06:33.815Z,8.30
2023-04-15T07:09:05.433Z,8.30
2023-04-15T07:11:33.914Z,8.30
2023-04-15T07:14:01.971Z,8.30
2023-04-15T07:16:30.450Z,8.30
2023-04-15T07:18:58.512Z,8.30
2023-04-15T07:21:27.721Z,8.40
2023-04-15T07:23:55.940Z,8.40
2023-04-15T07:26:25.915Z,8.40
2023-04-15T07:28:53.959Z,8.40
2023-04-15T07:31:22.141Z,8.40
2023-04-15T07:33:50.196Z,8.40
2023-04-15T07:36:18.726Z,8.40
2023-04-15T07:38:46.775Z,8.40
2023-04-15T07:41:15.703Z,8.50
2023-04-15T07:43:45.287Z,8.50
2023-04-15T07:46:13.408Z,8.50
2023-04-15T07:48:41.613Z,8.50
2023-04-15T07:51:10.784Z,8.50
2023-04-15T07:53:38.876Z,8.50
2023-04-15T07:56:07.538Z,8.50
2023-04-15T07:58:35.592Z,8.50
2023-04-15T08:01:06.925Z,8.60
2023-04-15T08:03:35.416Z,8.60
2023-04-15T08:06:03.969Z,8.60
2023-04-15T08:08:32.185Z,8.60
2023-04-15T08:11:00.245Z,8.60
2023-04-15T08:13:29.416Z,8.70
2023-04-15T08:16:18.499Z,8.70
2023-04-15T08:18:46.712Z,8.70
2023-04-15T08:21:14.973Z,8.70
2023-04-15T08:23:43.769Z,8.70
2023-04-15T08:26:12.080Z,8.70
2023-04-15T08:28:42.722Z,8.80
2023-04-15T08:31:11.144Z,8.80
2023-04-15T08:33:41.308Z,8.80
2023-04-15T08:36:09.783Z,8.80
2023-04-15T08:38:38.244Z,8.80
2023-04-15T08:41:12.907Z,8.80
2023-04-15T08:43:50.596Z,8.80
2023-04-15T08:46:19.493Z,8.80
2023-04-15T08:48:50.032Z,8.90
2023-04-15T08:51:18.562Z,8.90
2023-04-15T08:53:47.806Z,8.80
2023-04-15T08:56:18.225Z,8.80
2023-04-15T08:58:48.927Z,8.90
2023-04-15T09:01:17.691Z,8.90
2023-04-15T09:03:46.652Z,8.90
2023-04-15T09:06:18.089Z,9.00
2023-04-15T09:08:46.207Z,9.00
2023-04-15T09:11:14.417Z,9.00
2023-04-15T09:13:42.739Z,9.00
2023-04-15T09:16:11.145Z,9.00
2023-04-15T09:18:40.327Z,9.00
2023-04-15T09:21:11.183Z,9.00
2023-04-15T09:23:42.346Z,9.10
2023-04-15T09:26:10.611Z,9.10
2023-04-15T09:28:43.917Z,9.10
2023-04-15T09:31:12.106Z,9.10
2023-04-15T09:33:57.509Z,9.20
2023-04-15T09:36:26.257Z,9.20
2023-04-15T09:39:00.339Z,9.20
2023-04-15T09:41:28.734Z,9.20
2023-04-15T09:43:56.784Z,9.20
2023-04-15T09:46:42.289Z,9.20
2023-04-15T09:49:11.343Z,9.20
2023-04-15T09:51:40.057Z,9.20
2023-04-15T09:54:09.545Z,9.30
2023-04-15T09:56:42.145Z,9.30
2023-04-15T09:59:12.456Z,9.30
2023-04-15T10:01:42.201Z,9.30
2023-04-15T10:04:11.103Z,9.30
2023-04-15T10:06:40.775Z,9.40
2023-04-15T10:09:10.425Z,9.40
2023-04-15T10:11:38.558Z,9.40
2023-04-15T10:14:08.650Z,9.50
2023-04-15T10:16:42.574Z,9.60
2023-04-15T10:19:11.681Z,9.60
2023-04-15T10:21:40.369Z,9.70
2023-04-15T10:24:10.250Z,9.70
2023-04-15T10:26:38.985Z,9.70
2023-04-15T10:29:07.349Z,9.80
2023-04-15T10:31:38.145Z,9.90
2023-04-15T10:34:07.403Z,10.00
2023-04-15T10:36:35.478Z,10.20
2023-04-15T10:39:03.820Z,10.20
2023-04-15T10:41:34.570Z,10.10
2023-04-15T10:44:04.938Z,10.20
2023-04-15T10:46:38.686Z,10.20
2023-04-15T10:49:11.321Z,10.30
2023-04-15T10:51:42.516Z,10.40
2023-04-15T10:54:14.684Z,10.40
2023-04-15T10:56:45.375Z,10.50
2023-04-15T10:59:13.575Z,10.50
2023-04-15T11:02:02.646Z,10.50
2023-04-15T11:04:55.931Z,10.60
2023-04-15T11:07:52.296Z,10.80
2023-04-15T11:10:57.176Z,10.80
2023-04-15T11:13:28.905Z,10.80
2023-04-15T11:16:02.105Z,10.90
2023-04-15T11:18:32.822Z,10.80
2023-04-15T11:21:03.442Z,10.80
2023-04-15T11:23:37.338Z,10.80
2023-04-15T11:26:09.206Z,10.80
2023-04-15T11:28:42.704Z,10.90
2023-04-15T11:31:12.839Z,11.00
2023-04-15T11:33:47.645Z,11.00
2023-04-15T11:36:15.795Z,11.10
2023-04-15T11:38:45.358Z,11.40
2023-04-15T11:41:13.595Z,11.60
2023-04-15T11:43:43.451Z,11.80
2023-04-15T11:46:11.672Z,11.90
2023-04-15T11:48:44.008Z,12.10
2023-04-15T11:51:13.827Z,12.10
2023-04-15T11:53:43.322Z,12.40
2023-04-15T11:56:12.180Z,12.70
2023-04-15T11:58:43.339Z,12.80
2023-04-15T12:01:11.426Z,12.90
2023-04-15T12:03:41.177Z,12.90
2023-04-15T12:06:16.548Z,13.10
2023-04-15T12:09:09.606Z,13.10
2023-04-15T12:11:46.083Z,13.30
2023-04-15T12:14:22.359Z,13.30
2023-04-15T12:16:52.530Z,13.40
2023-04-15T12:19:25.134Z,13.30
2023-04-15T12:21:55.377Z,13.40
2023-04-15T12:24:24.047Z,13.40
2023-04-15T12:26:53.982Z,13.40
2023-04-15T12:29:27.478Z,13.60
2023-04-15T12:31:57.393Z,13.70
2023-04-15T12:34:30.723Z,13.70
2023-04-15T12:37:00.648Z,13.90
2023-04-15T12:39:30.780Z,14.20
2023-04-15T12:42:00.209Z,14.30
2023-04-15T12:44:30.255Z,14.30
2023-04-15T12:46:59.950Z,14.30
2023-04-15T12:49:28.626Z,14.40
2023-04-15T12:51:59.488Z,14.50
2023-04-15T12:54:27.759Z,14.30
2023-04-15T12:56:56.164Z,14.20
2023-04-15T12:59:24.831Z,14.30
2023-04-15T13:01:55.006Z,14.30
2023-04-15T13:04:23.633Z,14.30
2023-04-15T13:06:51.731Z,14.30
2023-04-15T13:09:19.799Z,14.10
2023-04-15T13:11:47.852Z,14.00
2023-04-15T13:14:15.989Z,13.80
2023-04-15T13:16:44.021Z,13.80
2023-04-15T13:19:13.995Z,13.70
2023-04-15T13:21:42.527Z,13.70
2023-04-15T13:24:10.600Z,13.80
2023-04-15T13:26:38.779Z,14.10
2023-04-15T13:29:06.942Z,14.20
2023-04-15T13:31:35.118Z,14.20
2023-04-15T13:34:03.416Z,14.30
2023-04-15T13:36:33.253Z,14.30
2023-04-15T13:39:01.481Z,14.50
2023-04-15T13:41:29.542Z,14.50
2023-04-15T13:43:58.295Z,14.40
2023-04-15T13:46:26.696Z,14.20
2023-04-15T13:48:54.788Z,14.10
2023-04-15T13:51:22.871Z,14.00
2023-04-15T13:53:52.277Z,13.90
2023-04-15T13:56:21.503Z,13.90
2023-04-15T13:58:49.806Z,14.10
2023-04-15T14:01:18.076Z,14.00
2023-04-15T14:03:46.315Z,14.00
2023-04-15T14:06:14.531Z,14.10
2023-04-15T14:08:42.607Z,14.00
2023-04-15T14:11:12.656Z,14.00
2023-04-15T14:13:40.721Z,13.90
2023-04-15T14:16:08.874Z,13.90
2023-04-15T14:18:37.333Z,13.90
2023-04-15T14:21:07.041Z,13.90
2023-04-15T14:23:35.118Z,14.00
2023-04-15T14:26:03.207Z,14.00
2023-04-15T14:28:33.110Z,14.10
2023-04-15T14:31:01.282Z,14.20
2023-04-15T14:33:29.367Z,14.20
2023-04-15T14:35:57.485Z,14.30
2023-04-15T14:38:25.565Z,14.30
2023-04-15T14:40:53.625Z,14.20
2023-04-15T14:43:21.982Z,14.30
2023-04-15T14:45:51.980Z,14.30
2023-04-15T14:48:20.068Z,14.20
2023-04-15T14:50:56.076Z,14.20
2023-04-15T14:53:24.180Z,14.10
2023-04-15T14:55:52.198Z,14.20
2023-04-15T14:58:20.397Z,14.30
2023-04-15T15:00:48.435Z,14.30
2023-04-15T15:03:18.105Z,14.20
2023-04-15T15:05:47.721Z,14.30
2023-04-15T15:08:16.084Z,14.40
2023-04-15T15:10:49.385Z,14.40
2023-04-15T15:13:19.219Z,14.50
2023-04-15T15:15:50.166Z,14.40
2023-04-15T15:18:19.821Z,14.30
2023-04-15T15:20:48.023Z,14.20
2023-04-15T15:23:16.144Z,14.10
2023-04-15T15:25:45.753Z,14.10
2023-04-15T15:28:14.164Z,14.30
2023-04-15T15:30:42.270Z,14.20
2023-04-15T15:33:10.461Z,14.00
2023-04-15T15:35:40.947Z,14.00
2023-04-15T15:38:09.356Z,13.90
2023-04-15T15:40:37.410Z,13.90
2023-04-15T15:43:05.820Z,13.80
2023-04-15T15:45:34.282Z,13.70
2023-04-15T15:48:03.025Z,13.70
2023-04-15T15:50:31.248Z,13.50
2023-04-15T15:53:00.765Z,13.50
2023-04-15T15:55:28.862Z,13.40
2023-04-15T15:57:56.896Z,13.40
2023-04-15T16:00:25.073Z,13.30
2023-04-15T16:03:06.942Z,13.30
2023-04-15T16:05:35.801Z,13.30
2023-04-15T16:08:05.564Z,13.30
2023-04-15T16:10:33.722Z,13.30
2023-04-15T16:13:01.965Z,13.30
2023-04-15T16:15:30.105Z,13.20
2023-04-15T16:17:58.269Z,13.30
2023-04-15T16:20:26.568Z,13.20
2023-04-15T16:22:54.735Z,13.30
2023-04-15T16:25:24.234Z,13.20
2023-04-15T16:28:01.332Z,13.20
2023-04-15T16:30:37.798Z,13.20
2023-04-15T16:33:06.125Z,13.20
2023-04-15T16:35:34.850Z,13.20
2023-04-15T16:38:03.165Z,13.20
2023-04-15T16:40:32.875Z,13.20
2023-04-15T16:43:01.059Z,13.10
2023-04-15T16:45:29.141Z,13.00
2023-04-15T16:47:57.866Z,13.00
2023-04-15T16:50:26.537Z,13.00
2023-04-15T16:52:54.676Z,12.90
2023-04-15T16:55:22.823Z,12.90
2023-04-15T16:58:02.085Z,12.90
2023-04-15T17:00:32.192Z,12.90
2023-04-15T17:03:01.278Z,12.90
2023-04-15T17:05:30.563Z,12.80
2023-04-15T17:07:58.791Z,12.80
2023-04-15T17:10:26.862Z,12.90
2023-04-15T17:12:57.320Z,12.90
2023-04-15T17:15:25.970Z,12.80
2023-04-15T17:17:54.205Z,12.70
2023-04-15T17:20:22.394Z,12.70
2023-04-15T17:22:50.597Z,12.60
2023-04-15T17:25:19.423Z,12.60
2023-04-15T17:27:47.464Z,12.50
2023-04-15T17:30:16.891Z,12.50
2023-04-15T17:32:45.286Z,12.50
2023-04-15T17:35:13.606Z,12.50
2023-04-15T17:37:41.688Z,12.50
2023-04-15T17:40:10.761Z,12.40
2023-04-15T17:42:39.036Z,12.40
2023-04-15T17:45:08.413Z,12.30
2023-04-15T17:47:37.987Z,12.30
2023-04-15T17:50:07.062Z,12.30
2023-04-15T17:52:35.393Z,12.20
2023-04-15T17:55:03.644Z,12.20
2023-04-15T17:57:31.904Z,12.20
2023-04-15T18:00:00.066Z,12.20
2023-04-15T18:02:28.362Z,12.20
2023-04-15T18:04:58.045Z,12.10
2023-04-15T18:07:26.753Z,12.20
2023-04-15T18:09:55.859Z,12.10
2023-04-15T18:12:24.037Z,12.10
2023-04-15T18:14:52.252Z,12.00
2023-04-15T18:17:20.614Z,12.00
2023-04-15T18:19:48.972Z,12.00
2023-04-15T18:22:18.639Z,11.90
2023-04-15T18:24:46.823Z,11.90
2023-04-15T18:27:14.930Z,11.90
2023-04-15T18:29:43.679Z,11.90
2023-04-15T18:32:11.947Z,11.80
2023-04-15T18:34:42.729Z,11.90
2023-04-15T18:37:10.845Z,11.80
2023-04-15T18:39:40.573Z,11.80
2023-04-15T18:42:08.736Z,11.90
2023-04-15T18:44:37.552Z,11.80
2023-04-15T18:47:05.836Z,11.80
2023-04-15T18:49:34.254Z,11.80
2023-04-15T18:52:02.504Z,11.80
2023-04-15T18:54:30.659Z,11.80
2023-04-15T18:57:00.309Z,11.80
2023-04-15T18:59:30.129Z,11.80
2023-04-15T19:01:59.466Z,11.70
2023-04-15T19:04:29.336Z,11.70
2023-04-15T19:06:58.934Z,11.70
2023-04-15T19:09:27.388Z,11.70
2023-04-15T19:11:56.787Z,11.70
2023-04-15T19:14:26.346Z,11.70
2023-04-15T19:16:54.507Z,11.70
2023-04-15T19:19:22.729Z,11.60
2023-04-15T19:21:50.958Z,11.50
2023-04-15T19:24:20.301Z,11.50
2023-04-15T19:26:51.131Z,11.50
2023-04-15T19:29:19.564Z,11.50
2023-04-15T19:31:48.997Z,11.40
2023-04-15T19:34:17.109Z,11.40
2023-04-15T19:36:45.248Z,11.40
2023-04-15T19:39:13.714Z,11.30
2023-04-15T19:41:41.884Z,11.30
2023-04-15T19:44:12.725Z,11.40
2023-04-15T19:46:41.039Z,11.30
2023-04-15T19:49:10.866Z,11.30
2023-04-15T19:51:39.024Z,11.30
2023-04-15T19:54:07.124Z,11.30
2023-04-15T19:56:35.266Z,11.20
2023-04-15T19:59:03.367Z,11.20
2023-04-15T20:01:31.626Z,11.10
2023-04-15T20:03:59.928Z,11.10
2023-04-15T20:06:29.745Z,11.10
2023-04-15T20:08:57.957Z,11.10
2023-04-15T20:12:05.072Z,11.10
2023-04-15T20:14:17.718Z,11.00
2023-04-15T20:16:45.960Z,11.00
2023-04-15T20:19:16.916Z,11.00
2023-04-15T20:21:46.660Z,11.00
2023-04-15T20:24:15.008Z,10.90
2023-04-15T20:26:43.161Z,10.90
2023-04-15T20:29:11.311Z,10.80
2023-04-15T20:31:39.487Z,10.80
2023-04-15T20:34:09.984Z,10.70
2023-04-15T20:36:39.504Z,10.70
2023-04-15T20:39:09.018Z,10.70
2023-04-15T20:41:37.205Z,10.70
2023-04-15T20:44:05.403Z,10.70
2023-04-15T20:46:33.588Z,10.70
2023-04-15T20:49:02.102Z,10.70
2023-04-15T20:51:37.172Z,10.70
2023-04-15T20:54:05.293Z,10.70
2023-04-15T20:56:34.931Z,10.70
2023-04-15T20:59:03.358Z,10.70
2023-04-15T21:01:31.643Z,10.70
2023-04-15T21:04:00.403Z,10.70
2023-04-15T21:06:28.578Z,10.60
2023-04-15T21:08:56.698Z,10.60
2023-04-15T21:11:45.835Z,10.60
2023-04-15T21:14:14.221Z,10.60
2023-04-15T21:16:42.526Z,10.50
2023-04-15T21:19:10.825Z,10.40
2023-04-15T21:21:38.892Z,10.40
2023-04-15T21:24:07.939Z,10.30
2023-04-15T21:26:36.158Z,10.30
2023-04-15T21:29:04.590Z,10.30
2023-04-15T21:31:34.333Z,10.20
2023-04-15T21:34:02.415Z,10.20
2023-04-15T21:36:31.643Z,10.20
2023-04-15T21:38:59.809Z,10.20
2023-04-15T21:41:28.200Z,10.20
2023-04-15T21:43:56.267Z,10.10
2023-04-15T21:46:25.704Z,10.10
2023-04-15T21:49:02.558Z,10.10
2023-04-15T21:51:31.437Z,10.10
2023-04-15T21:53:59.615Z,10.00
2023-04-15T21:56:27.674Z,10.10
2023-04-15T21:58:57.811Z,10.00
2023-04-15T22:01:26.765Z,10.00
2023-04-15T22:03:55.021Z,10.00
2023-04-15T22:06:24.646Z,9.90
2023-04-15T22:08:57.508Z,9.90
2023-04-15T22:11:40.249Z,9.90
2023-04-15T22:14:09.066Z,9.80
2023-04-15T22:16:37.809Z,9.80
2023-04-15T22:19:06.342Z,9.80
2023-04-15T22:21:35.945Z,9.80
2023-04-15T22:24:32.578Z,9.70
2023-04-15T22:26:52.289Z,9.70
2023-04-15T22:29:20.339Z,9.60
2023-04-15T22:31:48.428Z,9.60
2023-04-15T22:34:21.134Z,9.60
2023-04-15T22:36:51.228Z,9.60
2023-04-15T22:39:19.977Z,9.60
2023-04-15T22:41:48.274Z,9.50
2023-04-15T22:44:16.299Z,9.50
2023-04-15T22:46:44.433Z,9.50
2023-04-15T22:49:12.520Z,9.50
2023-04-15T22:51:40.563Z,9.50
2023-04-15T22:54:09.976Z,9.50
2023-04-15T22:56:38.009Z,9.50
2023-04-15T22:59:06.366Z,9.50
2023-04-15T23:01:34.478Z,9.50
2023-04-15T23:04:06.817Z,9.40
2023-04-15T23:06:50.798Z,9.40
2023-04-15T23:09:20.949Z,9.40
2023-04-15T23:11:49.214Z,9.40
2023-04-15T23:14:17.227Z,9.40
2023-04-15T23:16:45.550Z,9.30
2023-04-15T23:19:13.622Z,9.30
2023-04-15T23:21:41.712Z,9.30
2023-04-15T23:24:09.793Z,9.30
2023-04-15T23:26:39.228Z,9.30
2023-04-15T23:29:08.258Z,9.30
2023-04-15T23:31:36.656Z,9.20
2023-04-15T23:34:05.204Z,9.30
2023-04-15T23:36:33.214Z,9.20
2023-04-15T23:39:01.610Z,9.20
2023-04-15T23:41:29.659Z,9.20
2023-04-15T23:43:59.030Z,9.20
2023-04-15T23:46:27.233Z,9.20
2023-04-15T23:48:55.379Z,9.10
2023-04-15T23:51:23.411Z,9.10
2023-04-15T23:53:52.358Z,9.10
2023-04-15T23:56:20.818Z,9.00
2023-04-15T23:58:48.889Z,9.00
